sensor_id;sensor_type;location;lat;lon;timestamp;temperature;humidity
19805;DHT22;10062;51.052;13.756;2022-11-20T00:02:03;-3.70;1.00
19805;DHT22;10062;51.052;13.756;2022-11-20T00:04:34;-3.90;1.00
19805;DHT22;10062;51.052;13.756;2022-11-20T00:07:08;-3.90;1.00
19805;DHT22;10062;51.052;13.756;2022-11-20T00:09:39;-4.00;1.00
19805;DHT22;10062;51.052;13.756;2022-11-20T00:12:11;-4.10;1.00
19805;DHT22;10062;51.052;13.756;2022-11-20T00:14:43;-3.80;1.00
19805;DHT22;10062;51.052;13.756;2022-11-20T00:17:15;-4.00;1.00
19805;DHT22;10062;51.052;13.756;2022-11-20T00:19:47;-3.90;1.00
19805;DHT22;10062;51.052;13.756;2022-11-20T00:22:20;-4.00;1.00
19805;DHT22;10062;51.052;13.756;2022-11-20T00:24:52;-4.10;1.00
19805;DHT22;10062;51.052;13.756;2022-11-20T00:27:24;-4.10;1.00
19805;DHT22;10062;51.052;13.756;2022-11-20T00:29:55;-4.00;1.00
19805;DHT22;10062;51.052;13.756;2022-11-20T00:32:27;-4.00;1.00
19805;DHT22;10062;51.052;13.756;2022-11-20T00:34:59;-4.10;1.00
19805;DHT22;10062;51.052;13.756;2022-11-20T00:37:32;-4.10;1.00
19805;DHT22;10062;51.052;13.756;2022-11-20T00:40:05;-4.10;1.00
19805;DHT22;10062;51.052;13.756;2022-11-20T00:42:37;-4.20;1.00
19805;DHT22;10062;51.052;13.756;2022-11-20T00:45:09;-4.30;1.00
19805;DHT22;10062;51.052;13.756;2022-11-20T00:47:40;-4.30;1.00
19805;DHT22;10062;51.052;13.756;2022-11-20T00:50:12;-4.40;1.00
19805;DHT22;10062;51.052;13.756;2022-11-20T00:52:45;-4.40;1.00
19805;DHT22;10062;51.052;13.756;2022-11-20T00:55:17;-4.30;1.00
19805;DHT22;10062;51.052;13.756;2022-11-20T00:57:49;-4.30;1.00
19805;DHT22;10062;51.052;13.756;2022-11-20T01:00:21;-4.20;1.00
19805;DHT22;10062;51.052;13.756;2022-11-20T01:02:55;-4.30;1.00
19805;DHT22;10062;51.052;13.756;2022-11-20T01:05:26;-4.40;1.00
19805;DHT22;10062;51.052;13.756;2022-11-20T01:08:00;-4.20;1.00
19805;DHT22;10062;51.052;13.756;2022-11-20T01:10:31;-4.40;1.00
19805;DHT22;10062;51.052;13.756;2022-11-20T01:13:03;-4.30;1.00
19805;DHT22;10062;51.052;13.756;2022-11-20T01:15:52;-4.30;1.00
19805;DHT22;10062;51.052;13.756;2022-11-20T01:18:24;-4.30;1.00
19805;DHT22;10062;51.052;13.756;2022-11-20T01:21:00;-4.30;1.00
19805;DHT22;10062;51.052;13.756;2022-11-20T01:23:36;-4.40;1.00
19805;DHT22;10062;51.052;13.756;2022-11-20T01:26:10;-4.40;1.00
19805;DHT22;10062;51.052;13.756;2022-11-20T01:28:42;-4.40;1.00
19805;DHT22;10062;51.052;13.756;2022-11-20T01:31:17;-4.30;1.00
19805;DHT22;10062;51.052;13.756;2022-11-20T01:33:50;-4.40;1.00
19805;DHT22;10062;51.052;13.756;2022-11-20T01:36:24;-4.40;1.00
19805;DHT22;10062;51.052;13.756;2022-11-20T01:39:00;-4.50;1.00
19805;DHT22;10062;51.052;13.756;2022-11-20T01:41:33;-4.40;1.00
19805;DHT22;10062;51.052;13.756;2022-11-20T01:44:49;-4.40;1.00
19805;DHT22;10062;51.052;13.756;2022-11-20T01:47:25;-4.50;1.00
19805;DHT22;10062;51.052;13.756;2022-11-20T01:50:03;-4.50;1.00
19805;DHT22;10062;51.052;13.756;2022-11-20T01:52:39;-4.40;1.00
19805;DHT22;10062;51.052;13.756;2022-11-20T01:55:18;-4.40;1.00
19805;DHT22;10062;51.052;13.756;2022-11-20T01:57:51;-4.50;1.00
19805;DHT22;10062;51.052;13.756;2022-11-20T02:00:24;-4.50;1.00
19805;DHT22;10062;51.052;13.756;2022-11-20T02:02:57;-4.40;1.00
19805;DHT22;10062;51.052;13.756;2022-11-20T02:05:33;-4.40;1.00
19805;DHT22;10062;51.052;13.756;2022-11-20T02:08:07;-4.40;1.00
19805;DHT22;10062;51.052;13.756;2022-11-20T02:10:40;-4.40;1.00
19805;DHT22;10062;51.052;13.756;2022-11-20T02:13:12;-4.50;1.00
19805;DHT22;10062;51.052;13.756;2022-11-20T02:16:04;-4.50;1.00
19805;DHT22;10062;51.052;13.756;2022-11-20T02:18:37;-4.60;1.00
19805;DHT22;10062;51.052;13.756;2022-11-20T02:21:19;-4.70;1.00
19805;DHT22;10062;51.052;13.756;2022-11-20T02:24:02;-4.80;1.00
19805;DHT22;10062;51.052;13.756;2022-11-20T02:26:40;-4.80;1.00
19805;DHT22;10062;51.052;13.756;2022-11-20T02:29:14;-4.90;1.00
19805;DHT22;10062;51.052;13.756;2022-11-20T02:31:47;-5.00;1.00
19805;DHT22;10062;51.052;13.756;2022-11-20T02:34:19;-4.80;1.00
19805;DHT22;10062;51.052;13.756;2022-11-20T02:36:52;-5.00;1.00
19805;DHT22;10062;51.052;13.756;2022-11-20T02:39:27;-5.00;1.00
19805;DHT22;10062;51.052;13.756;2022-11-20T02:42:01;-5.00;1.00
19805;DHT22;10062;51.052;13.756;2022-11-20T02:44:32;-5.00;1.00
19805;DHT22;10062;51.052;13.756;2022-11-20T02:47:04;-5.10;1.00
19805;DHT22;10062;51.052;13.756;2022-11-20T02:49:36;-5.00;1.00
19805;DHT22;10062;51.052;13.756;2022-11-20T02:52:08;-4.80;1.00
19805;DHT22;10062;51.052;13.756;2022-11-20T02:54:41;-5.00;1.00
19805;DHT22;10062;51.052;13.756;2022-11-20T02:57:13;-5.00;1.00
19805;DHT22;10062;51.052;13.756;2022-11-20T02:59:45;-4.90;1.00
19805;DHT22;10062;51.052;13.756;2022-11-20T03:02:16;-5.00;1.00
19805;DHT22;10062;51.052;13.756;2022-11-20T03:04:48;-5.00;1.00
19805;DHT22;10062;51.052;13.756;2022-11-20T03:07:20;-5.00;1.00
19805;DHT22;10062;51.052;13.756;2022-11-20T03:09:53;-4.90;1.00
19805;DHT22;10062;51.052;13.756;2022-11-20T03:12:25;-4.90;1.00
19805;DHT22;10062;51.052;13.756;2022-11-20T03:14:56;-4.90;1.00
19805;DHT22;10062;51.052;13.756;2022-11-20T03:17:28;-4.90;1.00
19805;DHT22;10062;51.052;13.756;2022-11-20T03:20:01;-4.80;1.00
19805;DHT22;10062;51.052;13.756;2022-11-20T03:22:33;-4.90;1.00
19805;DHT22;10062;51.052;13.756;2022-11-20T03:25:06;-5.00;1.00
19805;DHT22;10062;51.052;13.756;2022-11-20T03:27:38;-5.00;1.00
19805;DHT22;10062;51.052;13.756;2022-11-20T03:30:11;-5.00;1.00
19805;DHT22;10062;51.052;13.756;2022-11-20T03:32:43;-5.00;1.00
19805;DHT22;10062;51.052;13.756;2022-11-20T03:35:15;-5.00;1.00
19805;DHT22;10062;51.052;13.756;2022-11-20T03:37:46;-5.10;1.00
19805;DHT22;10062;51.052;13.756;2022-11-20T03:40:20;-5.10;1.00
19805;DHT22;10062;51.052;13.756;2022-11-20T03:42:51;-5.20;1.00
19805;DHT22;10062;51.052;13.756;2022-11-20T03:45:23;-5.20;1.00
19805;DHT22;10062;51.052;13.756;2022-11-20T03:47:55;-5.20;1.00
19805;DHT22;10062;51.052;13.756;2022-11-20T03:50:27;-4.90;1.00
19805;DHT22;10062;51.052;13.756;2022-11-20T03:52:59;-5.10;1.00
19805;DHT22;10062;51.052;13.756;2022-11-20T03:55:32;-5.20;1.00
19805;DHT22;10062;51.052;13.756;2022-11-20T03:58:03;-5.30;1.00
19805;DHT22;10062;51.052;13.756;2022-11-20T04:00:35;-5.00;1.00
19805;DHT22;10062;51.052;13.756;2022-11-20T04:03:07;-5.30;1.00
19805;DHT22;10062;51.052;13.756;2022-11-20T04:05:39;-5.40;1.00
19805;DHT22;10062;51.052;13.756;2022-11-20T04:08:11;-5.30;1.00
19805;DHT22;10062;51.052;13.756;2022-11-20T04:10:44;-5.30;1.00
19805;DHT22;10062;51.052;13.756;2022-11-20T04:13:16;-5.30;1.00
19805;DHT22;10062;51.052;13.756;2022-11-20T04:15:47;-5.30;1.00
19805;DHT22;10062;51.052;13.756;2022-11-20T04:18:19;-5.30;1.00
19805;DHT22;10062;51.052;13.756;2022-11-20T04:20:51;-5.30;1.00
19805;DHT22;10062;51.052;13.756;2022-11-20T04:23:23;-5.30;1.00
19805;DHT22;10062;51.052;13.756;2022-11-20T04:26:01;-5.40;1.00
19805;DHT22;10062;51.052;13.756;2022-11-20T04:28:33;-5.50;1.00
19805;DHT22;10062;51.052;13.756;2022-11-20T04:31:06;-5.40;1.00
19805;DHT22;10062;51.052;13.756;2022-11-20T04:33:39;-5.40;1.00
19805;DHT22;10062;51.052;13.756;2022-11-20T04:36:12;-5.30;1.00
19805;DHT22;10062;51.052;13.756;2022-11-20T04:38:45;-5.40;1.00
19805;DHT22;10062;51.052;13.756;2022-11-20T04:41:21;-5.40;1.00
19805;DHT22;10062;51.052;13.756;2022-11-20T04:43:54;-5.30;1.00
19805;DHT22;10062;51.052;13.756;2022-11-20T04:46:30;-5.40;1.00
19805;DHT22;10062;51.052;13.756;2022-11-20T04:49:03;-5.50;1.00
19805;DHT22;10062;51.052;13.756;2022-11-20T04:51:35;-5.50;1.00
19805;DHT22;10062;51.052;13.756;2022-11-20T04:54:07;-5.40;1.00
19805;DHT22;10062;51.052;13.756;2022-11-20T04:56:41;-5.50;1.00
19805;DHT22;10062;51.052;13.756;2022-11-20T04:59:12;-5.60;1.00
19805;DHT22;10062;51.052;13.756;2022-11-20T05:01:44;-5.50;1.00
19805;DHT22;10062;51.052;13.756;2022-11-20T05:04:16;-5.60;1.00
19805;DHT22;10062;51.052;13.756;2022-11-20T05:06:49;-5.60;1.00
19805;DHT22;10062;51.052;13.756;2022-11-20T05:09:21;-5.60;1.00
19805;DHT22;10062;51.052;13.756;2022-11-20T05:11:54;-5.60;1.00
19805;DHT22;10062;51.052;13.756;2022-11-20T05:14:25;-5.50;1.40
19805;DHT22;10062;51.052;13.756;2022-11-20T05:16:57;-5.50;1.00
19805;DHT22;10062;51.052;13.756;2022-11-20T05:19:29;-5.60;1.00
19805;DHT22;10062;51.052;13.756;2022-11-20T05:22:01;-5.60;1.00
19805;DHT22;10062;51.052;13.756;2022-11-20T05:24:33;-5.40;1.00
19805;DHT22;10062;51.052;13.756;2022-11-20T05:27:06;-5.50;6.00
19805;DHT22;10062;51.052;13.756;2022-11-20T05:29:38;-5.50;1.40
19805;DHT22;10062;51.052;13.756;2022-11-20T05:32:10;-5.60;1.00
19805;DHT22;10062;51.052;13.756;2022-11-20T05:34:41;-5.60;1.00
19805;DHT22;10062;51.052;13.756;2022-11-20T05:37:13;-5.60;1.00
19805;DHT22;10062;51.052;13.756;2022-11-20T05:39:45;-5.70;1.00
19805;DHT22;10062;51.052;13.756;2022-11-20T05:42:18;-5.70;1.00
19805;DHT22;10062;51.052;13.756;2022-11-20T05:45:04;-5.70;1.00
19805;DHT22;10062;51.052;13.756;2022-11-20T05:47:36;-5.60;2.70
19805;DHT22;10062;51.052;13.756;2022-11-20T05:50:08;-5.60;3.70
19805;DHT22;10062;51.052;13.756;2022-11-20T05:52:40;-5.60;1.10
19805;DHT22;10062;51.052;13.756;2022-11-20T05:55:11;-5.60;1.00
19805;DHT22;10062;51.052;13.756;2022-11-20T05:57:44;-5.70;1.00
19805;DHT22;10062;51.052;13.756;2022-11-20T06:00:18;-5.60;1.00
19805;DHT22;10062;51.052;13.756;2022-11-20T06:02:50;-5.60;1.00
19805;DHT22;10062;51.052;13.756;2022-11-20T06:05:21;-5.60;1.00
19805;DHT22;10062;51.052;13.756;2022-11-20T06:07:53;-5.60;1.00
19805;DHT22;10062;51.052;13.756;2022-11-20T06:10:25;-5.60;1.00
19805;DHT22;10062;51.052;13.756;2022-11-20T06:12:58;-5.60;1.00
19805;DHT22;10062;51.052;13.756;2022-11-20T06:15:30;-5.60;1.00
19805;DHT22;10062;51.052;13.756;2022-11-20T06:18:02;-5.70;1.00
19805;DHT22;10062;51.052;13.756;2022-11-20T06:20:34;-5.60;1.00
19805;DHT22;10062;51.052;13.756;2022-11-20T06:23:06;-5.70;1.00
19805;DHT22;10062;51.052;13.756;2022-11-20T06:25:38;-5.60;1.00
19805;DHT22;10062;51.052;13.756;2022-11-20T06:28:11;-5.60;1.00
19805;DHT22;10062;51.052;13.756;2022-11-20T06:30:45;-5.60;1.00
19805;DHT22;10062;51.052;13.756;2022-11-20T06:33:17;-5.60;1.00
19805;DHT22;10062;51.052;13.756;2022-11-20T06:35:48;-5.60;1.00
19805;DHT22;10062;51.052;13.756;2022-11-20T06:38:20;-5.70;1.00
19805;DHT22;10062;51.052;13.756;2022-11-20T06:40:52;-5.80;1.00
19805;DHT22;10062;51.052;13.756;2022-11-20T06:43:28;-5.80;1.00
19805;DHT22;10062;51.052;13.756;2022-11-20T06:46:00;-5.80;1.00
19805;DHT22;10062;51.052;13.756;2022-11-20T06:48:32;-5.70;1.00
19805;DHT22;10062;51.052;13.756;2022-11-20T06:51:05;-5.70;1.00
19805;DHT22;10062;51.052;13.756;2022-11-20T06:53:37;-5.70;1.00
19805;DHT22;10062;51.052;13.756;2022-11-20T06:56:09;-5.60;1.00
19805;DHT22;10062;51.052;13.756;2022-11-20T06:58:42;-5.70;1.00
19805;DHT22;10062;51.052;13.756;2022-11-20T07:01:15;-5.70;1.00
19805;DHT22;10062;51.052;13.756;2022-11-20T07:03:48;-5.80;1.00
19805;DHT22;10062;51.052;13.756;2022-11-20T07:06:20;-5.80;1.00
19805;DHT22;10062;51.052;13.756;2022-11-20T07:08:52;-5.80;1.00
19805;DHT22;10062;51.052;13.756;2022-11-20T07:11:24;-5.70;1.00
19805;DHT22;10062;51.052;13.756;2022-11-20T07:13:58;-5.70;1.00
19805;DHT22;10062;51.052;13.756;2022-11-20T07:16:29;-5.70;1.00
19805;DHT22;10062;51.052;13.756;2022-11-20T07:19:01;-5.70;1.70
19805;DHT22;10062;51.052;13.756;2022-11-20T07:21:33;-5.50;9.40
19805;DHT22;10062;51.052;13.756;2022-11-20T07:24:05;-5.40;7.90
19805;DHT22;10062;51.052;13.756;2022-11-20T07:26:37;-5.30;3.80
19805;DHT22;10062;51.052;13.756;2022-11-20T07:29:10;-5.20;2.90
19805;DHT22;10062;51.052;13.756;2022-11-20T07:31:41;-5.20;1.60
19805;DHT22;10062;51.052;13.756;2022-11-20T07:34:13;-5.00;2.20
19805;DHT22;10062;51.052;13.756;2022-11-20T07:36:45;-5.00;1.00
19805;DHT22;10062;51.052;13.756;2022-11-20T07:39:17;-5.00;1.00
19805;DHT22;10062;51.052;13.756;2022-11-20T07:41:49;-4.80;1.00
19805;DHT22;10062;51.052;13.756;2022-11-20T07:44:22;-4.70;1.00
19805;DHT22;10062;51.052;13.756;2022-11-20T07:46:54;-4.60;1.00
19805;DHT22;10062;51.052;13.756;2022-11-20T07:49:25;-4.00;1.00
19805;DHT22;10062;51.052;13.756;2022-11-20T07:51:57;-4.50;1.00
19805;DHT22;10062;51.052;13.756;2022-11-20T07:54:29;-4.60;1.00
19805;DHT22;10062;51.052;13.756;2022-11-20T07:57:01;-4.50;1.00
19805;DHT22;10062;51.052;13.756;2022-11-20T07:59:34;-4.40;1.00
19805;DHT22;10062;51.052;13.756;2022-11-20T08:02:09;-4.50;1.00
19805;DHT22;10062;51.052;13.756;2022-11-20T08:04:41;-4.40;1.00
19805;DHT22;10062;51.052;13.756;2022-11-20T08:07:13;-4.30;1.00
19805;DHT22;10062;51.052;13.756;2022-11-20T08:09:44;-4.10;1.00
19805;DHT22;10062;51.052;13.756;2022-11-20T08:12:18;-3.90;1.00
19805;DHT22;10062;51.052;13.756;2022-11-20T08:15:10;-3.50;1.00
19805;DHT22;10062;51.052;13.756;2022-11-20T08:17:41;-3.50;1.00
19805;DHT22;10062;51.052;13.756;2022-11-20T08:20:13;-3.40;1.00
19805;DHT22;10062;51.052;13.756;2022-11-20T08:22:45;-2.60;1.00
19805;DHT22;10062;51.052;13.756;2022-11-20T08:25:17;-3.00;1.00
19805;DHT22;10062;51.052;13.756;2022-11-20T08:27:48;-2.70;1.00
19805;DHT22;10062;51.052;13.756;2022-11-20T08:30:22;-2.50;1.00
19805;DHT22;10062;51.052;13.756;2022-11-20T08:32:54;-2.20;1.00
19805;DHT22;10062;51.052;13.756;2022-11-20T08:35:26;-2.00;1.00
19805;DHT22;10062;51.052;13.756;2022-11-20T08:37:57;-1.80;1.00
19805;DHT22;10062;51.052;13.756;2022-11-20T08:40:29;-1.50;1.00
19805;DHT22;10062;51.052;13.756;2022-11-20T08:43:01;-1.10;1.00
19805;DHT22;10062;51.052;13.756;2022-11-20T08:45:34;-1.00;92.70
19805;DHT22;10062;51.052;13.756;2022-11-20T08:48:06;-1.00;1.00
19805;DHT22;10062;51.052;13.756;2022-11-20T08:50:37;-0.60;99.90
19805;DHT22;10062;51.052;13.756;2022-11-20T08:53:09;-0.20;99.90
19805;DHT22;10062;51.052;13.756;2022-11-20T08:55:41;-0.30;1.00
19805;DHT22;10062;51.052;13.756;2022-11-20T08:58:13;0.10;1.00
19805;DHT22;10062;51.052;13.756;2022-11-20T09:00:46;0.60;1.00
19805;DHT22;10062;51.052;13.756;2022-11-20T09:03:18;0.90;1.00
19805;DHT22;10062;51.052;13.756;2022-11-20T09:05:50;1.30;1.00
19805;DHT22;10062;51.052;13.756;2022-11-20T09:08:22;1.60;1.00
19805;DHT22;10062;51.052;13.756;2022-11-20T09:10:55;1.90;91.50
19805;DHT22;10062;51.052;13.756;2022-11-20T09:13:28;2.20;1.00
19805;DHT22;10062;51.052;13.756;2022-11-20T09:16:03;2.40;99.90
19805;DHT22;10062;51.052;13.756;2022-11-20T09:18:35;2.60;99.90
19805;DHT22;10062;51.052;13.756;2022-11-20T09:21:10;2.60;99.90
19805;DHT22;10062;51.052;13.756;2022-11-20T09:23:42;2.90;1.00
19805;DHT22;10062;51.052;13.756;2022-11-20T09:26:14;3.20;1.00
19805;DHT22;10062;51.052;13.756;2022-11-20T09:28:46;3.70;99.90
19805;DHT22;10062;51.052;13.756;2022-11-20T09:31:22;3.40;1.00
19805;DHT22;10062;51.052;13.756;2022-11-20T09:33:54;3.60;99.90
19805;DHT22;10062;51.052;13.756;2022-11-20T09:36:26;3.70;99.90
19805;DHT22;10062;51.052;13.756;2022-11-20T09:38:58;3.90;99.90
19805;DHT22;10062;51.052;13.756;2022-11-20T09:41:46;4.20;1.00
19805;DHT22;10062;51.052;13.756;2022-11-20T09:44:33;4.10;1.00
19805;DHT22;10062;51.052;13.756;2022-11-20T09:47:16;4.30;1.00
19805;DHT22;10062;51.052;13.756;2022-11-20T09:50:00;4.40;1.00
19805;DHT22;10062;51.052;13.756;2022-11-20T09:52:41;4.50;1.00
19805;DHT22;10062;51.052;13.756;2022-11-20T09:55:16;4.40;1.00
19805;DHT22;10062;51.052;13.756;2022-11-20T09:57:51;4.50;1.00
19805;DHT22;10062;51.052;13.756;2022-11-20T10:00:23;4.50;1.00
19805;DHT22;10062;51.052;13.756;2022-11-20T10:03:01;4.60;1.00
19805;DHT22;10062;51.052;13.756;2022-11-20T10:05:39;3.90;1.00
19805;DHT22;10062;51.052;13.756;2022-11-20T10:08:16;3.70;1.00
19805;DHT22;10062;51.052;13.756;2022-11-20T10:10:52;4.20;1.00
19805;DHT22;10062;51.052;13.756;2022-11-20T10:13:36;4.50;1.00
19805;DHT22;10062;51.052;13.756;2022-11-20T10:16:19;4.50;1.00
19805;DHT22;10062;51.052;13.756;2022-11-20T10:19:07;8.20;1.00
19805;DHT22;10062;51.052;13.756;2022-11-20T10:21:59;4.00;1.00
19805;DHT22;10062;51.052;13.756;2022-11-20T10:24:55;3.80;1.00
19805;DHT22;10062;51.052;13.756;2022-11-20T10:30:24;4.10;1.00
19805;DHT22;10062;51.052;13.756;2022-11-20T10:33:01;4.20;1.00
19805;DHT22;10062;51.052;13.756;2022-11-20T10:35:40;4.40;1.00
19805;DHT22;10062;51.052;13.756;2022-11-20T10:38:20;4.60;1.00
19805;DHT22;10062;51.052;13.756;2022-11-20T10:40:54;4.90;1.00
19805;DHT22;10062;51.052;13.756;2022-11-20T10:43:52;5.30;1.00
19805;DHT22;10062;51.052;13.756;2022-11-20T10:46:25;5.50;1.00
19805;DHT22;10062;51.052;13.756;2022-11-20T10:49:04;5.80;1.00
19805;DHT22;10062;51.052;13.756;2022-11-20T10:51:45;6.10;99.90
19805;DHT22;10062;51.052;13.756;2022-11-20T10:54:24;6.40;99.90
19805;DHT22;10062;51.052;13.756;2022-11-20T10:57:02;6.50;99.90
19805;DHT22;10062;51.052;13.756;2022-11-20T10:59:56;6.50;99.90
19805;DHT22;10062;51.052;13.756;2022-11-20T11:02:40;6.20;99.90
19805;DHT22;10062;51.052;13.756;2022-11-20T11:05:29;6.10;99.90
19805;DHT22;10062;51.052;13.756;2022-11-20T11:08:08;5.70;99.90
19805;DHT22;10062;51.052;13.756;2022-11-20T11:10:47;5.90;99.90
19805;DHT22;10062;51.052;13.756;2022-11-20T11:13:22;6.10;99.90
19805;DHT22;10062;51.052;13.756;2022-11-20T11:15:54;6.10;99.90
19805;DHT22;10062;51.052;13.756;2022-11-20T11:18:29;6.00;99.90
19805;DHT22;10062;51.052;13.756;2022-11-20T11:21:04;5.90;99.90
19805;DHT22;10062;51.052;13.756;2022-11-20T11:23:39;5.70;99.90
19805;DHT22;10062;51.052;13.756;2022-11-20T11:26:20;5.80;99.90
19805;DHT22;10062;51.052;13.756;2022-11-20T11:28:56;5.50;99.90
19805;DHT22;10062;51.052;13.756;2022-11-20T11:31:30;5.50;1.00
19805;DHT22;10062;51.052;13.756;2022-11-20T11:34:05;5.00;1.00
19805;DHT22;10062;51.052;13.756;2022-11-20T11:36:37;4.80;1.00
19805;DHT22;10062;51.052;13.756;2022-11-20T11:39:15;4.80;1.00
19805;DHT22;10062;51.052;13.756;2022-11-20T11:41:47;4.50;1.00
19805;DHT22;10062;51.052;13.756;2022-11-20T11:44:21;4.20;1.00
19805;DHT22;10062;51.052;13.756;2022-11-20T11:47:21;4.10;1.00
19805;DHT22;10062;51.052;13.756;2022-11-20T11:50:15;3.90;99.90
19805;DHT22;10062;51.052;13.756;2022-11-20T11:52:53;4.00;1.00
19805;DHT22;10062;51.052;13.756;2022-11-20T11:55:31;3.90;1.00
19805;DHT22;10062;51.052;13.756;2022-11-20T11:58:11;4.00;1.00
19805;DHT22;10062;51.052;13.756;2022-11-20T12:00:55;4.40;1.00
19805;DHT22;10062;51.052;13.756;2022-11-20T12:03:32;4.60;1.00
19805;DHT22;10062;51.052;13.756;2022-11-20T12:06:10;4.80;1.00
19805;DHT22;10062;51.052;13.756;2022-11-20T12:08:47;5.00;99.90
19805;DHT22;10062;51.052;13.756;2022-11-20T12:11:28;4.90;99.90
19805;DHT22;10062;51.052;13.756;2022-11-20T12:14:17;4.80;99.90
19805;DHT22;10062;51.052;13.756;2022-11-20T12:16:54;4.80;99.90
19805;DHT22;10062;51.052;13.756;2022-11-20T12:19:29;4.80;99.90
19805;DHT22;10062;51.052;13.756;2022-11-20T12:22:12;4.70;1.00
19805;DHT22;10062;51.052;13.756;2022-11-20T12:24:52;4.60;1.00
19805;DHT22;10062;51.052;13.756;2022-11-20T12:27:44;4.60;1.00
19805;DHT22;10062;51.052;13.756;2022-11-20T12:30:20;4.90;1.00
19805;DHT22;10062;51.052;13.756;2022-11-20T12:33:18;5.10;1.00
19805;DHT22;10062;51.052;13.756;2022-11-20T12:36:06;5.00;99.90
19805;DHT22;10062;51.052;13.756;2022-11-20T12:38:55;4.50;1.00
19805;DHT22;10062;51.052;13.756;2022-11-20T12:42:03;3.90;1.00
19805;DHT22;10062;51.052;13.756;2022-11-20T12:48:31;3.20;99.90
19805;DHT22;10062;51.052;13.756;2022-11-20T12:51:24;3.00;57.90
19805;DHT22;10062;51.052;13.756;2022-11-20T12:54:25;3.00;1.00
19805;DHT22;10062;51.052;13.756;2022-11-20T12:57:06;3.00;1.00
19805;DHT22;10062;51.052;13.756;2022-11-20T12:59:53;3.00;1.00
19805;DHT22;10062;51.052;13.756;2022-11-20T13:02:35;3.00;1.00
19805;DHT22;10062;51.052;13.756;2022-11-20T13:05:20;2.90;99.90
19805;DHT22;10062;51.052;13.756;2022-11-20T13:07:53;2.90;1.00
19805;DHT22;10062;51.052;13.756;2022-11-20T13:10:33;2.80;1.00
19805;DHT22;10062;51.052;13.756;2022-11-20T13:13:12;2.70;99.90
19805;DHT22;10062;51.052;13.756;2022-11-20T13:15:51;2.60;1.00
19805;DHT22;10062;51.052;13.756;2022-11-20T13:18:27;2.60;1.00
19805;DHT22;10062;51.052;13.756;2022-11-20T13:21:14;2.60;99.90
19805;DHT22;10062;51.052;13.756;2022-11-20T13:23:47;2.70;99.90
19805;DHT22;10062;51.052;13.756;2022-11-20T13:26:22;2.60;99.90
19805;DHT22;10062;51.052;13.756;2022-11-20T13:29:03;2.50;1.00
19805;DHT22;10062;51.052;13.756;2022-11-20T13:31:42;2.50;1.00
19805;DHT22;10062;51.052;13.756;2022-11-20T13:34:24;2.50;1.00
19805;DHT22;10062;51.052;13.756;2022-11-20T13:36:58;2.60;1.00
19805;DHT22;10062;51.052;13.756;2022-11-20T13:39:32;2.60;1.00
19805;DHT22;10062;51.052;13.756;2022-11-20T13:42:22;2.60;1.00
19805;DHT22;10062;51.052;13.756;2022-11-20T13:45:00;2.40;1.00
19805;DHT22;10062;51.052;13.756;2022-11-20T13:47:33;2.30;99.90
19805;DHT22;10062;51.052;13.756;2022-11-20T13:50:08;2.40;1.00
19805;DHT22;10062;51.052;13.756;2022-11-20T13:52:48;2.30;1.00
19805;DHT22;10062;51.052;13.756;2022-11-20T13:55:27;2.40;1.00
19805;DHT22;10062;51.052;13.756;2022-11-20T13:58:24;2.40;1.00
19805;DHT22;10062;51.052;13.756;2022-11-20T14:01:09;2.30;1.00
19805;DHT22;10062;51.052;13.756;2022-11-20T14:03:41;2.30;1.00
19805;DHT22;10062;51.052;13.756;2022-11-20T14:06:26;2.20;1.00
19805;DHT22;10062;51.052;13.756;2022-11-20T14:08:59;2.30;1.00
19805;DHT22;10062;51.052;13.756;2022-11-20T14:11:31;2.20;1.00
19805;DHT22;10062;51.052;13.756;2022-11-20T14:14:13;2.30;1.00
19805;DHT22;10062;51.052;13.756;2022-11-20T14:16:45;2.20;1.00
19805;DHT22;10062;51.052;13.756;2022-11-20T14:19:25;2.40;99.90
19805;DHT22;10062;51.052;13.756;2022-11-20T14:22:14;2.40;1.00
19805;DHT22;10062;51.052;13.756;2022-11-20T14:24:47;2.30;99.90
19805;DHT22;10062;51.052;13.756;2022-11-20T14:27:20;2.20;99.90
19805;DHT22;10062;51.052;13.756;2022-11-20T14:29:53;2.10;1.00
19805;DHT22;10062;51.052;13.756;2022-11-20T14:32:28;2.10;1.00
19805;DHT22;10062;51.052;13.756;2022-11-20T14:35:06;2.20;99.90
19805;DHT22;10062;51.052;13.756;2022-11-20T14:37:40;2.10;1.00
19805;DHT22;10062;51.052;13.756;2022-11-20T14:40:29;2.10;1.00
19805;DHT22;10062;51.052;13.756;2022-11-20T14:43:14;1.90;1.00
19805;DHT22;10062;51.052;13.756;2022-11-20T14:45:59;1.80;1.00
19805;DHT22;10062;51.052;13.756;2022-11-20T14:48:39;1.60;1.00
19805;DHT22;10062;51.052;13.756;2022-11-20T14:51:12;1.40;1.00
19805;DHT22;10062;51.052;13.756;2022-11-20T14:53:55;1.30;84.90
19805;DHT22;10062;51.052;13.756;2022-11-20T14:56:27;1.40;9.20
19805;DHT22;10062;51.052;13.756;2022-11-20T14:58:59;1.30;1.00
19805;DHT22;10062;51.052;13.756;2022-11-20T15:01:32;1.30;1.00
19805;DHT22;10062;51.052;13.756;2022-11-20T15:04:07;1.30;1.00
19805;DHT22;10062;51.052;13.756;2022-11-20T15:06:49;1.20;99.90
19805;DHT22;10062;51.052;13.756;2022-11-20T15:09:23;1.20;99.90
19805;DHT22;10062;51.052;13.756;2022-11-20T15:11:56;1.00;99.90
19805;DHT22;10062;51.052;13.756;2022-11-20T15:14:30;1.10;1.00
19805;DHT22;10062;51.052;13.756;2022-11-20T15:17:04;1.00;99.90
19805;DHT22;10062;51.052;13.756;2022-11-20T15:19:36;0.90;99.90
19805;DHT22;10062;51.052;13.756;2022-11-20T15:22:12;0.90;1.00
19805;DHT22;10062;51.052;13.756;2022-11-20T15:24:45;0.90;99.90
19805;DHT22;10062;51.052;13.756;2022-11-20T15:27:17;0.80;1.00
19805;DHT22;10062;51.052;13.756;2022-11-20T15:29:49;0.80;1.00
19805;DHT22;10062;51.052;13.756;2022-11-20T15:32:21;0.70;1.00
19805;DHT22;10062;51.052;13.756;2022-11-20T15:34:53;0.70;1.00
19805;DHT22;10062;51.052;13.756;2022-11-20T15:37:25;0.70;1.00
19805;DHT22;10062;51.052;13.756;2022-11-20T15:39:58;0.70;1.00
19805;DHT22;10062;51.052;13.756;2022-11-20T15:42:30;0.70;1.00
19805;DHT22;10062;51.052;13.756;2022-11-20T15:45:02;0.50;1.00
19805;DHT22;10062;51.052;13.756;2022-11-20T15:47:35;0.50;1.00
19805;DHT22;10062;51.052;13.756;2022-11-20T15:50:11;0.40;1.00
19805;DHT22;10062;51.052;13.756;2022-11-20T15:52:47;0.30;1.00
19805;DHT22;10062;51.052;13.756;2022-11-20T15:55:20;0.20;1.00
19805;DHT22;10062;51.052;13.756;2022-11-20T15:57:52;0.10;1.00
19805;DHT22;10062;51.052;13.756;2022-11-20T16:00:23;0.10;1.00
19805;DHT22;10062;51.052;13.756;2022-11-20T16:02:55;-0.10;1.00
19805;DHT22;10062;51.052;13.756;2022-11-20T16:05:28;-0.10;1.00
19805;DHT22;10062;51.052;13.756;2022-11-20T16:08:00;-0.10;1.00
19805;DHT22;10062;51.052;13.756;2022-11-20T16:10:33;-0.20;1.00
19805;DHT22;10062;51.052;13.756;2022-11-20T16:13:09;-0.20;1.00
19805;DHT22;10062;51.052;13.756;2022-11-20T16:24:12;-0.40;1.00
19805;DHT22;10062;51.052;13.756;2022-11-20T16:26:45;2.20;1.00
19805;DHT22;10062;51.052;13.756;2022-11-20T16:29:17;-0.40;1.00
19805;DHT22;10062;51.052;13.756;2022-11-20T16:31:49;-0.50;1.00
19805;DHT22;10062;51.052;13.756;2022-11-20T16:34:20;-0.50;1.00
19805;DHT22;10062;51.052;13.756;2022-11-20T16:36:52;-0.60;1.00
19805;DHT22;10062;51.052;13.756;2022-11-20T16:39:24;-0.60;1.00
19805;DHT22;10062;51.052;13.756;2022-11-20T16:41:57;-0.60;1.00